MOL Partner — 3EBZ5 — position and weather

sailwx.info

Track history (hours):
 
Tides and Currents Weather Stations Pressure Air Temp Water Temp Dewpoint Dewpoint Depression Visibility Wind Speed Wind Dir Waves Ship Positions

MOL Partner

Last reported at 2016-Nov-27 21:08 UTC. Time now 2016-Dec-05 14:35 UTC.
Position N 01°55' E 102°19'.

Length 293 m; draft 11.9 m.

Type: Ship (hazmat cat D). MMSI: 371303000.

Date/timePositionNaut miles runAvg speedWind from/ knotsBaromVisibWave heightAir tempDewpointWater temp
2016-Nov-27 21:08N 01°55' E 102°19'813.3
2016-Nov-27 20:34N 01°52' E 102°26'1414.1
2016-Nov-27 19:33N 01°46' E 102°39'1514.5
2016-Nov-27 18:33N 01°39' E 102°52'1714.6
2016-Nov-27 17:23N 01°29' E 103°05'37 1.8
2016-Nov-26 21:30N 01°12' E 103°38'1213.0
2016-Nov-26 20:33N 01°11' E 103°50'1212.1
2016-Nov-26 19:33N 01°16' E 104°01'1312.5
2016-Nov-26 18:33N 01°17' E 104°13'  
2016-Nov-20 17:33N 31°20' E 121°39'0 0.0
2016-Nov-20 12:33N 31°20' E 121°39'0 0.0
2016-Nov-19 23:24N 31°20' E 121°39'0 0.0
2016-Nov-19 22:30N 31°20' E 121°39'0 0.0
2016-Nov-19 19:31N 31°20' E 121°39'7 3.4
2016-Nov-19 17:33N 31°18' E 121°47'  
Track history (hours):
 
Tides and Currents Weather Stations Pressure Air Temp Water Temp Dewpoint Dewpoint Depression Visibility Wind Speed Wind Dir Waves Ship Positions

MOL Partner

Last reported at 2016-Nov-27 21:08 UTC. Time now 2016-Dec-05 14:35 UTC.
Position N 01°55' E 102°19'.

Length 293 m; draft 11.9 m.

Type: Ship (hazmat cat D). MMSI: 371303000.

Date/timePositionNaut miles runAvg speedWind from/ knotsBaromVisibWave heightAir tempDewpointWater temp
2016-Nov-27 21:08N 01°55' E 102°19'813.3
2016-Nov-27 20:34N 01°52' E 102°26'1414.1
2016-Nov-27 19:33N 01°46' E 102°39'1514.5
2016-Nov-27 18:33N 01°39' E 102°52'1714.6
2016-Nov-27 17:23N 01°29' E 103°05'37 1.8
2016-Nov-26 21:30N 01°12' E 103°38'1213.0
2016-Nov-26 20:33N 01°11' E 103°50'1212.1
2016-Nov-26 19:33N 01°16' E 104°01'1312.5
2016-Nov-26 18:33N 01°17' E 104°13'  
2016-Nov-20 17:33N 31°20' E 121°39'0 0.0
2016-Nov-20 12:33N 31°20' E 121°39'0 0.0
2016-Nov-19 23:24N 31°20' E 121°39'0 0.0
2016-Nov-19 22:30N 31°20' E 121°39'0 0.0
2016-Nov-19 19:31N 31°20' E 121°39'7 3.4
2016-Nov-19 17:33N 31°18' E 121°47'  

Dump ship's entire track history